Hunter M — WDE8140 — position and weather

sailwx.info

Track history (hours):
 
Tides and Currents Weather Stations Pressure Air Temp Water Temp Dewpoint Dewpoint Depression Visibility Wind Speed Wind Dir Waves Ship Positions

Hunter M

Owner: G & H Towing Company, Galveston, TX. More information available from US FCC via Universal Licensing System and Coast Guard Vessel Documentation Center.

Last reported at 2018-Feb-20 17:30 UTC. Time now 2018-Feb-20 17:54 UTC.
Position N 29°37' W 095°01'.

Length 30 m; draft 6.2 m.

Type: Tug. MMSI: 367402050.

Date/timePositionNaut miles runAvg speedWind from/ knotsBaromVisibWave heightAir tempDewpointWater temp
2018-Feb-20 17:30N 29°37' W 095°01'0 0.1
2018-Feb-20 17:00N 29°37' W 095°01'0 0.9
2018-Feb-20 16:30N 29°37' W 095°01'0 0.0
2018-Feb-20 16:00N 29°37' W 095°01'0 0.9
2018-Feb-20 15:30N 29°37' W 095°02'0 0.3
2018-Feb-20 15:00N 29°37' W 095°01'0 0.7
2018-Feb-20 14:30N 29°37' W 095°01'0 0.2
2018-Feb-20 13:58N 29°37' W 095°01'0 0.0
2018-Feb-20 13:28N 29°37' W 095°01'0 0.0
2018-Feb-20 12:58N 29°37' W 095°01'3 2.0
2018-Feb-20 11:39N 29°37' W 094°58'4 2.2
2018-Feb-20 09:46N 29°41' W 094°59'0 0.0
2018-Feb-20 07:45N 29°41' W 094°59'1 2.2
2018-Feb-20 07:30N 29°41' W 094°60'0 0.0
2018-Feb-20 07:00N 29°41' W 094°60'0 0.1
2018-Feb-20 06:30N 29°41' W 094°60'0 0.0
2018-Feb-20 06:00N 29°41' W 094°60'0 0.1
2018-Feb-20 05:29N 29°41' W 094°60'0 0.4
2018-Feb-20 05:00N 29°41' W 094°60'3 5.1
2018-Feb-20 04:30N 29°39' W 094°58'3 6.2
2018-Feb-20 04:00N 29°37' W 095°01'0 0.5
2018-Feb-20 03:28N 29°37' W 095°01'0 0.2
2018-Feb-20 03:00N 29°37' W 095°01'1 1.7
2018-Feb-20 02:30N 29°37' W 095°00'1 1.6
2018-Feb-20 01:59N 29°37' W 095°01'1 2.3
2018-Feb-20 01:30N 29°37' W 094°60'3 6.5
2018-Feb-20 01:00N 29°35' W 094°56'1 2.6
2018-Feb-20 00:30N 29°37' W 094°57'5 9.5
2018-Feb-20 00:00N 29°41' W 094°59'1 1.6
2018-Feb-19 23:29N 29°41' W 095°00'0 0.3
2018-Feb-19 23:00N 29°41' W 095°00'1 2.8
2018-Feb-19 22:29N 29°40' W 094°59'1 0.6
2018-Feb-19 21:23N 29°41' W 094°59'2 4.2
2018-Feb-19 20:55N 29°42' W 095°01'1 1.5
2018-Feb-19 19:54N 29°44' W 095°01'1 2.2
2018-Feb-19 19:28N 29°43' W 095°01'0 0.5
2018-Feb-19 18:38N 29°42' W 095°01'0 0.0
2018-Feb-19 18:29N 29°42' W 095°01'0 0.0
2018-Feb-19 17:59N 29°42' W 095°01'0 0.0
2018-Feb-19 17:29N 29°42' W 095°01'0 0.0
2018-Feb-19 16:59N 29°42' W 095°01'0 0.0
2018-Feb-19 16:17N 29°42' W 095°01'0 0.0
2018-Feb-19 15:52N 29°42' W 095°01'2 5.0
2018-Feb-19 15:31N 29°41' W 094°59'3 6.3
2018-Feb-19 15:00N 29°44' W 095°02'3 6.5
2018-Feb-19 14:29N 29°46' W 095°05'2 4.8
2018-Feb-19 13:58N 29°44' W 095°07'2 1.1
2018-Feb-19 12:26N 29°45' W 095°06'5 7.1
2018-Feb-19 11:46N 29°43' W 095°01'2 8.8
2018-Feb-19 11:31N 29°41' W 094°59'1 1.3
2018-Feb-19 10:59N 29°41' W 094°60'0 0.0
2018-Feb-19 10:23N 29°41' W 094°60'0 0.0
2018-Feb-19 09:59N 29°41' W 094°60'0 0.0
2018-Feb-19 09:26N 29°41' W 094°60'0 0.0
2018-Feb-19 08:56N 29°41' W 094°60'0 0.0
2018-Feb-19 08:23N 29°41' W 094°60'0 0.0
2018-Feb-19 07:59N 29°41' W 094°60'0 0.0
2018-Feb-19 07:29N 29°41' W 094°60'0 0.0
2018-Feb-19 06:59N 29°41' W 094°60'0 0.0
2018-Feb-19 06:29N 29°41' W 094°60'0 0.0
2018-Feb-19 05:59N 29°41' W 094°60'0 0.0
2018-Feb-19 05:29N 29°41' W 094°60'0 0.0
2018-Feb-19 04:56N 29°41' W 094°60'0 0.0
2018-Feb-19 04:29N 29°41' W 094°60'0 0.0
2018-Feb-19 03:59N 29°41' W 094°60'0 0.0
2018-Feb-19 03:29N 29°41' W 094°60'0 0.0
2018-Feb-19 02:53N 29°41' W 094°60'0 0.0
2018-Feb-19 02:29N 29°41' W 094°60'0 0.0
2018-Feb-19 01:53N 29°41' W 094°60'0 0.0
2018-Feb-18 23:08N 29°41' W 094°60'0 0.0
2018-Feb-18 22:38N 29°41' W 094°60'0 0.0
2018-Feb-18 22:26N 29°41' W 094°60'0 0.0
2018-Feb-18 19:35N 29°41' W 094°60'0 0.0
2018-Feb-18 19:29N 29°41' W 094°60'0 0.0
2018-Feb-18 18:59N 29°41' W 094°60'0 0.0
2018-Feb-18 18:26N 29°41' W 094°60'0 0.0
2018-Feb-18 17:56N 29°41' W 094°60'0 0.0
2018-Feb-18 17:19N 29°41' W 094°60'0 0.0
2018-Feb-18 16:56N 29°41' W 094°60'0 0.0
2018-Feb-18 16:14N 29°41' W 094°60'0 0.0
2018-Feb-18 15:58N 29°41' W 094°60'0 0.0
2018-Feb-18 14:53N 29°41' W 094°60'0 0.0
2018-Feb-18 14:29N 29°41' W 094°60'0 0.0
2018-Feb-18 13:56N 29°41' W 094°60'0 0.0
2018-Feb-18 13:19N 29°41' W 094°60'0 0.0
2018-Feb-18 12:47N 29°41' W 094°60'0 0.0
2018-Feb-18 10:01N 29°41' W 094°60'0 0.0
2018-Feb-18 10:00N 29°41' W 094°60'0 0.0
2018-Feb-18 09:30N 29°41' W 094°60'0 0.0
2018-Feb-18 09:00N 29°41' W 094°60'0 0.0
2018-Feb-18 08:30N 29°41' W 094°60'0 0.0
2018-Feb-18 08:00N 29°41' W 094°60'0 0.0
2018-Feb-18 07:30N 29°41' W 094°60'0 0.0
2018-Feb-18 07:00N 29°41' W 094°60'0 0.0
2018-Feb-18 06:29N 29°41' W 094°60'0 0.0
2018-Feb-18 06:00N 29°41' W 094°60'0 0.0
2018-Feb-18 05:27N 29°41' W 094°60'0 0.0
2018-Feb-18 04:59N 29°41' W 094°60'0 0.0
2018-Feb-18 04:29N 29°41' W 094°60'0 0.0
2018-Feb-18 03:59N 29°41' W 094°60'0 0.0
2018-Feb-18 03:30N 29°41' W 094°60'0 0.0
2018-Feb-18 03:00N 29°41' W 094°60'0 0.0
2018-Feb-18 02:30N 29°41' W 094°60'0 0.6
2018-Feb-18 02:00N 29°41' W 095°00'1 1.5
2018-Feb-18 01:31N 29°41' W 094°59'1 1.5
2018-Feb-18 01:00N 29°40' W 094°59'2 4.5
2018-Feb-18 00:28N 29°42' W 095°01'1 0.3
2018-Feb-17 21:40N 29°43' W 095°01'1 4.5
2018-Feb-17 21:30N 29°42' W 095°01'0 0.4
2018-Feb-17 20:48N 29°42' W 095°01'0 0.0
2018-Feb-17 20:06N 29°42' W 095°01'0 0.0
2018-Feb-17 20:00N 29°42' W 095°01'0 0.0
2018-Feb-17 19:21N 29°42' W 095°01'0 0.0
2018-Feb-17 19:00N 29°42' W 095°01'2 3.9
2018-Feb-17 18:31N 29°41' W 094°59'510.0
2018-Feb-17 18:01N 29°37' W 094°57'4 8.9
2018-Feb-17 17:31N 29°33' W 094°54'15 1.0
2018-Feb-17 02:17N 29°19' W 094°47'2 6.1
2018-Feb-17 02:00N 29°21' W 094°47'4 7.3
2018-Feb-17 01:30N 29°22' W 094°51'2 4.1
2018-Feb-17 01:00N 29°23' W 094°54'0 0.2
2018-Feb-17 00:29N 29°23' W 094°53'0 0.4
2018-Feb-16 23:57N 29°23' W 094°53'6 0.3
2018-Feb-16 01:57N 29°19' W 094°47'0 0.2
2018-Feb-16 01:02N 29°19' W 094°47'20 3.4
2018-Feb-15 19:18N 29°36' W 094°57'311.2
2018-Feb-15 19:00N 29°40' W 094°58'4 0.3
2018-Feb-15 08:13N 29°42' W 095°01'0 0.0
2018-Feb-15 07:55N 29°42' W 095°01'0 0.0
2018-Feb-15 07:28N 29°42' W 095°01'0 0.0
2018-Feb-15 06:16N 29°42' W 095°01'0 0.0
2018-Feb-15 05:55N 29°42' W 095°01'0 0.0
2018-Feb-15 05:28N 29°42' W 095°01'0 0.0
2018-Feb-15 04:58N 29°42' W 095°01'0 0.0
2018-Feb-15 04:25N 29°42' W 095°01'0 0.0
2018-Feb-15 03:55N 29°42' W 095°01'0 0.0
2018-Feb-15 01:38N 29°42' W 095°01'0 0.0
2018-Feb-14 23:40N 29°42' W 095°01'0 0.0
2018-Feb-14 23:22N 29°42' W 095°01'0 0.4
2018-Feb-14 22:14N 29°43' W 095°01'2 8.7
2018-Feb-14 22:00N 29°42' W 094°59'5 8.4
2018-Feb-14 21:26N 29°37' W 094°59'2 4.8
2018-Feb-14 20:59N 29°37' W 095°01'0 0.0
2018-Feb-14 20:29N 29°37' W 095°01'0 0.0
2018-Feb-14 19:59N 29°37' W 095°01'0 0.0
2018-Feb-14 19:29N 29°37' W 095°01'0 0.0
2018-Feb-14 18:59N 29°37' W 095°01'0 0.0
2018-Feb-14 18:29N 29°37' W 095°01'0 0.0
2018-Feb-14 17:59N 29°37' W 095°01'0 0.0
2018-Feb-14 17:29N 29°37' W 095°01'0 0.0
2018-Feb-14 16:59N 29°37' W 095°01'0 0.0
2018-Feb-14 16:29N 29°37' W 095°01'0 0.0
2018-Feb-14 15:59N 29°37' W 095°01'0 0.0
2018-Feb-14 15:26N 29°37' W 095°01'0 0.0
2018-Feb-14 14:59N 29°37' W 095°01'0 0.0
2018-Feb-14 11:38N 29°37' W 095°01'0 0.0
2018-Feb-14 11:26N 29°37' W 095°01'0 0.0
2018-Feb-14 10:59N 29°37' W 095°01'0 0.0
2018-Feb-14 10:29N 29°37' W 095°01'0 0.0
2018-Feb-14 09:59N 29°37' W 095°01'0 0.0
2018-Feb-14 09:29N 29°37' W 095°01'0 0.0
2018-Feb-14 08:59N 29°37' W 095°01'0 0.0
2018-Feb-14 08:29N 29°37' W 095°01'0 0.0
2018-Feb-14 07:59N 29°37' W 095°01'0 0.0
2018-Feb-14 07:29N 29°37' W 095°01'0 0.0
2018-Feb-14 06:59N 29°37' W 095°01'0 0.0
2018-Feb-14 06:29N 29°37' W 095°01'0 0.0
2018-Feb-14 05:59N 29°37' W 095°01'0 0.0
2018-Feb-14 05:29N 29°37' W 095°01'0 0.0
2018-Feb-14 04:59N 29°37' W 095°01'0 0.0
2018-Feb-14 04:29N 29°37' W 095°01'0 0.0
2018-Feb-14 03:59N 29°37' W 095°01'0 0.0
2018-Feb-14 03:29N 29°37' W 095°01'0 0.0
2018-Feb-14 02:56N 29°37' W 095°01'0 0.0
2018-Feb-14 02:29N 29°37' W 095°01'0 0.0
2018-Feb-14 01:59N 29°37' W 095°01'0 0.0
2018-Feb-14 01:29N 29°37' W 095°01'1 1.4
2018-Feb-14 01:00N 29°37' W 095°00'3 5.2
2018-Feb-14 00:30N 29°38' W 094°58'5 1.3
2018-Feb-13 20:23N 29°43' W 095°01'1 0.9
2018-Feb-13 19:39N 29°42' W 095°01'1 8.9
2018-Feb-13 19:30N 29°42' W 094°60'510.2
2018-Feb-13 19:00N 29°37' W 094°57'3 5.1
2018-Feb-13 18:30N 29°37' W 095°00'0 1.0
2018-Feb-13 18:01N 29°37' W 095°01'0 0.2
2018-Feb-13 17:31N 29°37' W 095°01'3 5.2
2018-Feb-13 17:01N 29°37' W 094°58'3 6.2
2018-Feb-13 16:30N 29°34' W 094°56'2 3.3
2018-Feb-13 15:53N 29°36' W 094°57'510.2
2018-Feb-13 15:26N 29°40' W 094°59'1 1.4
2018-Feb-13 14:49N 29°41' W 094°59'0 0.4
2018-Feb-13 14:30N 29°41' W 094°60'0 0.1
2018-Feb-13 14:00N 29°41' W 094°60'0 0.0
2018-Feb-13 13:30N 29°41' W 094°60'0 0.4
2018-Feb-13 13:00N 29°41' W 094°59'4 6.9
2018-Feb-13 12:24N 29°37' W 094°59'1 3.2
2018-Feb-13 12:00N 29°37' W 095°01'1 1.5
2018-Feb-13 11:30N 29°37' W 095°01'2 4.8
2018-Feb-13 11:00N 29°37' W 094°59'1 0.9
2018-Feb-13 10:00N 29°37' W 094°60'1 0.2
2018-Feb-13 02:05N 29°37' W 095°01'0 0.0
2018-Feb-13 01:59N 29°37' W 095°01'0 0.0
2018-Feb-13 01:26N 29°37' W 095°01'0 0.0
2018-Feb-13 00:59N 29°37' W 095°01'0 0.0
2018-Feb-13 00:29N 29°37' W 095°01'0 0.0
2018-Feb-12 23:59N 29°37' W 095°01'0 0.0
2018-Feb-12 23:30N 29°37' W 095°01'4 7.6
2018-Feb-12 23:00N 29°36' W 094°57'  
Track history (hours):
 
Tides and Currents Weather Stations Pressure Air Temp Water Temp Dewpoint Dewpoint Depression Visibility Wind Speed Wind Dir Waves Ship Positions

Hunter M

Owner: G & H Towing Company, Galveston, TX. More information available from US FCC via Universal Licensing System and Coast Guard Vessel Documentation Center.

Last reported at 2018-Feb-20 17:30 UTC. Time now 2018-Feb-20 17:54 UTC.
Position N 29°37' W 095°01'.

Length 30 m; draft 6.2 m.

Type: Tug. MMSI: 367402050.

Date/timePositionNaut miles runAvg speedWind from/ knotsBaromVisibWave heightAir tempDewpointWater temp
2018-Feb-20 17:30N 29°37' W 095°01'0 0.1
2018-Feb-20 17:00N 29°37' W 095°01'0 0.9
2018-Feb-20 16:30N 29°37' W 095°01'0 0.0
2018-Feb-20 16:00N 29°37' W 095°01'0 0.9
2018-Feb-20 15:30N 29°37' W 095°02'0 0.3
2018-Feb-20 15:00N 29°37' W 095°01'0 0.7
2018-Feb-20 14:30N 29°37' W 095°01'0 0.2
2018-Feb-20 13:58N 29°37' W 095°01'0 0.0
2018-Feb-20 13:28N 29°37' W 095°01'0 0.0
2018-Feb-20 12:58N 29°37' W 095°01'3 2.0
2018-Feb-20 11:39N 29°37' W 094°58'4 2.2
2018-Feb-20 09:46N 29°41' W 094°59'0 0.0
2018-Feb-20 07:45N 29°41' W 094°59'1 2.2
2018-Feb-20 07:30N 29°41' W 094°60'0 0.0
2018-Feb-20 07:00N 29°41' W 094°60'0 0.1
2018-Feb-20 06:30N 29°41' W 094°60'0 0.0
2018-Feb-20 06:00N 29°41' W 094°60'0 0.1
2018-Feb-20 05:29N 29°41' W 094°60'0 0.4
2018-Feb-20 05:00N 29°41' W 094°60'3 5.1
2018-Feb-20 04:30N 29°39' W 094°58'3 6.2
2018-Feb-20 04:00N 29°37' W 095°01'0 0.5
2018-Feb-20 03:28N 29°37' W 095°01'0 0.2
2018-Feb-20 03:00N 29°37' W 095°01'1 1.7
2018-Feb-20 02:30N 29°37' W 095°00'1 1.6
2018-Feb-20 01:59N 29°37' W 095°01'1 2.3
2018-Feb-20 01:30N 29°37' W 094°60'3 6.5
2018-Feb-20 01:00N 29°35' W 094°56'1 2.6
2018-Feb-20 00:30N 29°37' W 094°57'5 9.5
2018-Feb-20 00:00N 29°41' W 094°59'1 1.6
2018-Feb-19 23:29N 29°41' W 095°00'0 0.3
2018-Feb-19 23:00N 29°41' W 095°00'1 2.8
2018-Feb-19 22:29N 29°40' W 094°59'1 0.6
2018-Feb-19 21:23N 29°41' W 094°59'2 4.2
2018-Feb-19 20:55N 29°42' W 095°01'1 1.5
2018-Feb-19 19:54N 29°44' W 095°01'1 2.2
2018-Feb-19 19:28N 29°43' W 095°01'0 0.5
2018-Feb-19 18:38N 29°42' W 095°01'0 0.0
2018-Feb-19 18:29N 29°42' W 095°01'0 0.0
2018-Feb-19 17:59N 29°42' W 095°01'0 0.0
2018-Feb-19 17:29N 29°42' W 095°01'0 0.0
2018-Feb-19 16:59N 29°42' W 095°01'0 0.0
2018-Feb-19 16:17N 29°42' W 095°01'0 0.0
2018-Feb-19 15:52N 29°42' W 095°01'2 5.0
2018-Feb-19 15:31N 29°41' W 094°59'3 6.3
2018-Feb-19 15:00N 29°44' W 095°02'3 6.5
2018-Feb-19 14:29N 29°46' W 095°05'2 4.8
2018-Feb-19 13:58N 29°44' W 095°07'2 1.1
2018-Feb-19 12:26N 29°45' W 095°06'5 7.1
2018-Feb-19 11:46N 29°43' W 095°01'2 8.8
2018-Feb-19 11:31N 29°41' W 094°59'1 1.3
2018-Feb-19 10:59N 29°41' W 094°60'0 0.0
2018-Feb-19 10:23N 29°41' W 094°60'0 0.0
2018-Feb-19 09:59N 29°41' W 094°60'0 0.0
2018-Feb-19 09:26N 29°41' W 094°60'0 0.0
2018-Feb-19 08:56N 29°41' W 094°60'0 0.0
2018-Feb-19 08:23N 29°41' W 094°60'0 0.0
2018-Feb-19 07:59N 29°41' W 094°60'0 0.0
2018-Feb-19 07:29N 29°41' W 094°60'0 0.0
2018-Feb-19 06:59N 29°41' W 094°60'0 0.0
2018-Feb-19 06:29N 29°41' W 094°60'0 0.0
2018-Feb-19 05:59N 29°41' W 094°60'0 0.0
2018-Feb-19 05:29N 29°41' W 094°60'0 0.0
2018-Feb-19 04:56N 29°41' W 094°60'0 0.0
2018-Feb-19 04:29N 29°41' W 094°60'0 0.0
2018-Feb-19 03:59N 29°41' W 094°60'0 0.0
2018-Feb-19 03:29N 29°41' W 094°60'0 0.0
2018-Feb-19 02:53N 29°41' W 094°60'0 0.0
2018-Feb-19 02:29N 29°41' W 094°60'0 0.0
2018-Feb-19 01:53N 29°41' W 094°60'0 0.0
2018-Feb-18 23:08N 29°41' W 094°60'0 0.0
2018-Feb-18 22:38N 29°41' W 094°60'0 0.0
2018-Feb-18 22:26N 29°41' W 094°60'0 0.0
2018-Feb-18 19:35N 29°41' W 094°60'0 0.0
2018-Feb-18 19:29N 29°41' W 094°60'0 0.0
2018-Feb-18 18:59N 29°41' W 094°60'0 0.0
2018-Feb-18 18:26N 29°41' W 094°60'0 0.0
2018-Feb-18 17:56N 29°41' W 094°60'0 0.0
2018-Feb-18 17:19N 29°41' W 094°60'0 0.0
2018-Feb-18 16:56N 29°41' W 094°60'0 0.0
2018-Feb-18 16:14N 29°41' W 094°60'0 0.0
2018-Feb-18 15:58N 29°41' W 094°60'0 0.0
2018-Feb-18 14:53N 29°41' W 094°60'0 0.0
2018-Feb-18 14:29N 29°41' W 094°60'0 0.0
2018-Feb-18 13:56N 29°41' W 094°60'0 0.0
2018-Feb-18 13:19N 29°41' W 094°60'0 0.0
2018-Feb-18 12:47N 29°41' W 094°60'0 0.0
2018-Feb-18 10:01N 29°41' W 094°60'0 0.0
2018-Feb-18 10:00N 29°41' W 094°60'0 0.0
2018-Feb-18 09:30N 29°41' W 094°60'0 0.0
2018-Feb-18 09:00N 29°41' W 094°60'0 0.0
2018-Feb-18 08:30N 29°41' W 094°60'0 0.0
2018-Feb-18 08:00N 29°41' W 094°60'0 0.0
2018-Feb-18 07:30N 29°41' W 094°60'0 0.0
2018-Feb-18 07:00N 29°41' W 094°60'0 0.0
2018-Feb-18 06:29N 29°41' W 094°60'0 0.0
2018-Feb-18 06:00N 29°41' W 094°60'0 0.0
2018-Feb-18 05:27N 29°41' W 094°60'0 0.0
2018-Feb-18 04:59N 29°41' W 094°60'0 0.0
2018-Feb-18 04:29N 29°41' W 094°60'0 0.0
2018-Feb-18 03:59N 29°41' W 094°60'0 0.0
2018-Feb-18 03:30N 29°41' W 094°60'0 0.0
2018-Feb-18 03:00N 29°41' W 094°60'0 0.0
2018-Feb-18 02:30N 29°41' W 094°60'0 0.6
2018-Feb-18 02:00N 29°41' W 095°00'1 1.5
2018-Feb-18 01:31N 29°41' W 094°59'1 1.5
2018-Feb-18 01:00N 29°40' W 094°59'2 4.5
2018-Feb-18 00:28N 29°42' W 095°01'1 0.3
2018-Feb-17 21:40N 29°43' W 095°01'1 4.5
2018-Feb-17 21:30N 29°42' W 095°01'0 0.4
2018-Feb-17 20:48N 29°42' W 095°01'0 0.0
2018-Feb-17 20:06N 29°42' W 095°01'0 0.0
2018-Feb-17 20:00N 29°42' W 095°01'0 0.0
2018-Feb-17 19:21N 29°42' W 095°01'0 0.0
2018-Feb-17 19:00N 29°42' W 095°01'2 3.9
2018-Feb-17 18:31N 29°41' W 094°59'510.0
2018-Feb-17 18:01N 29°37' W 094°57'4 8.9
2018-Feb-17 17:31N 29°33' W 094°54'15 1.0
2018-Feb-17 02:17N 29°19' W 094°47'2 6.1
2018-Feb-17 02:00N 29°21' W 094°47'4 7.3
2018-Feb-17 01:30N 29°22' W 094°51'2 4.1
2018-Feb-17 01:00N 29°23' W 094°54'0 0.2
2018-Feb-17 00:29N 29°23' W 094°53'0 0.4
2018-Feb-16 23:57N 29°23' W 094°53'6 0.3
2018-Feb-16 01:57N 29°19' W 094°47'0 0.2
2018-Feb-16 01:02N 29°19' W 094°47'20 3.4
2018-Feb-15 19:18N 29°36' W 094°57'311.2
2018-Feb-15 19:00N 29°40' W 094°58'4 0.3
2018-Feb-15 08:13N 29°42' W 095°01'0 0.0
2018-Feb-15 07:55N 29°42' W 095°01'0 0.0
2018-Feb-15 07:28N 29°42' W 095°01'0 0.0
2018-Feb-15 06:16N 29°42' W 095°01'0 0.0
2018-Feb-15 05:55N 29°42' W 095°01'0 0.0
2018-Feb-15 05:28N 29°42' W 095°01'0 0.0
2018-Feb-15 04:58N 29°42' W 095°01'0 0.0
2018-Feb-15 04:25N 29°42' W 095°01'0 0.0
2018-Feb-15 03:55N 29°42' W 095°01'0 0.0
2018-Feb-15 01:38N 29°42' W 095°01'0 0.0
2018-Feb-14 23:40N 29°42' W 095°01'0 0.0
2018-Feb-14 23:22N 29°42' W 095°01'0 0.4
2018-Feb-14 22:14N 29°43' W 095°01'2 8.7
2018-Feb-14 22:00N 29°42' W 094°59'5 8.4
2018-Feb-14 21:26N 29°37' W 094°59'2 4.8
2018-Feb-14 20:59N 29°37' W 095°01'0 0.0
2018-Feb-14 20:29N 29°37' W 095°01'0 0.0
2018-Feb-14 19:59N 29°37' W 095°01'0 0.0
2018-Feb-14 19:29N 29°37' W 095°01'0 0.0
2018-Feb-14 18:59N 29°37' W 095°01'0 0.0
2018-Feb-14 18:29N 29°37' W 095°01'0 0.0
2018-Feb-14 17:59N 29°37' W 095°01'0 0.0
2018-Feb-14 17:29N 29°37' W 095°01'0 0.0
2018-Feb-14 16:59N 29°37' W 095°01'0 0.0
2018-Feb-14 16:29N 29°37' W 095°01'0 0.0
2018-Feb-14 15:59N 29°37' W 095°01'0 0.0
2018-Feb-14 15:26N 29°37' W 095°01'0 0.0
2018-Feb-14 14:59N 29°37' W 095°01'0 0.0
2018-Feb-14 11:38N 29°37' W 095°01'0 0.0
2018-Feb-14 11:26N 29°37' W 095°01'0 0.0
2018-Feb-14 10:59N 29°37' W 095°01'0 0.0
2018-Feb-14 10:29N 29°37' W 095°01'0 0.0
2018-Feb-14 09:59N 29°37' W 095°01'0 0.0
2018-Feb-14 09:29N 29°37' W 095°01'0 0.0
2018-Feb-14 08:59N 29°37' W 095°01'0 0.0
2018-Feb-14 08:29N 29°37' W 095°01'0 0.0
2018-Feb-14 07:59N 29°37' W 095°01'0 0.0
2018-Feb-14 07:29N 29°37' W 095°01'0 0.0
2018-Feb-14 06:59N 29°37' W 095°01'0 0.0
2018-Feb-14 06:29N 29°37' W 095°01'0 0.0
2018-Feb-14 05:59N 29°37' W 095°01'0 0.0
2018-Feb-14 05:29N 29°37' W 095°01'0 0.0
2018-Feb-14 04:59N 29°37' W 095°01'0 0.0
2018-Feb-14 04:29N 29°37' W 095°01'0 0.0
2018-Feb-14 03:59N 29°37' W 095°01'0 0.0
2018-Feb-14 03:29N 29°37' W 095°01'0 0.0
2018-Feb-14 02:56N 29°37' W 095°01'0 0.0
2018-Feb-14 02:29N 29°37' W 095°01'0 0.0
2018-Feb-14 01:59N 29°37' W 095°01'0 0.0
2018-Feb-14 01:29N 29°37' W 095°01'1 1.4
2018-Feb-14 01:00N 29°37' W 095°00'3 5.2
2018-Feb-14 00:30N 29°38' W 094°58'5 1.3
2018-Feb-13 20:23N 29°43' W 095°01'1 0.9
2018-Feb-13 19:39N 29°42' W 095°01'1 8.9
2018-Feb-13 19:30N 29°42' W 094°60'510.2
2018-Feb-13 19:00N 29°37' W 094°57'3 5.1
2018-Feb-13 18:30N 29°37' W 095°00'0 1.0
2018-Feb-13 18:01N 29°37' W 095°01'0 0.2
2018-Feb-13 17:31N 29°37' W 095°01'3 5.2
2018-Feb-13 17:01N 29°37' W 094°58'3 6.2
2018-Feb-13 16:30N 29°34' W 094°56'2 3.3
2018-Feb-13 15:53N 29°36' W 094°57'510.2
2018-Feb-13 15:26N 29°40' W 094°59'1 1.4
2018-Feb-13 14:49N 29°41' W 094°59'0 0.4
2018-Feb-13 14:30N 29°41' W 094°60'0 0.1
2018-Feb-13 14:00N 29°41' W 094°60'0 0.0
2018-Feb-13 13:30N 29°41' W 094°60'0 0.4
2018-Feb-13 13:00N 29°41' W 094°59'4 6.9
2018-Feb-13 12:24N 29°37' W 094°59'1 3.2
2018-Feb-13 12:00N 29°37' W 095°01'1 1.5
2018-Feb-13 11:30N 29°37' W 095°01'2 4.8
2018-Feb-13 11:00N 29°37' W 094°59'1 0.9
2018-Feb-13 10:00N 29°37' W 094°60'1 0.2
2018-Feb-13 02:05N 29°37' W 095°01'0 0.0
2018-Feb-13 01:59N 29°37' W 095°01'0 0.0
2018-Feb-13 01:26N 29°37' W 095°01'0 0.0
2018-Feb-13 00:59N 29°37' W 095°01'0 0.0
2018-Feb-13 00:29N 29°37' W 095°01'0 0.0
2018-Feb-12 23:59N 29°37' W 095°01'0 0.0
2018-Feb-12 23:30N 29°37' W 095°01'4 7.6
2018-Feb-12 23:00N 29°36' W 094°57'  

Dump ship's entire track history